Time;durP1;ratioP1;P1;durP2;ratioP2;P2;SDS_P1;SDS_P2;PMS_P1;PMS_P2;Temp;Humidity;BMP_temperature;BMP_pressure;BME280_temperature;BME280_humidity;BME280_pressure;Samples;Min_cycle;Max_cycle;Signal;HPM_P1;HPM_P2
2021/05/05 00:01:19;;;;;;;;;6.00;5.00;;;;;21.36;26.22;97588.31;6171717;28;124955;-66
2021/05/05 00:04:22;;;;;;;;;5.00;5.00;;;;;21.40;26.28;97597.53;6203441;28;124032;-66
2021/05/05 00:07:24;;;;;;;;;4.00;4.00;;;;;21.13;26.46;97552.03;6197599;28;124851;-66
2021/05/05 00:10:27;;;;;;;;;7.00;6.00;;;;;21.46;26.09;97593.47;6189497;28;126594;-66
2021/05/05 00:13:29;;;;;;;;;5.00;5.00;;;;;21.54;26.29;97589.94;6189331;28;125084;-66
2021/05/05 00:16:32;;;;;;;;;6.00;6.00;;;;;21.55;26.03;97592.34;6208878;28;125611;-66
2021/05/05 00:19:35;;;;;;;;;5.60;5.00;;;;;21.58;26.22;97583.47;6209267;28;125223;-66
2021/05/05 00:22:37;;;;;;;;;7.00;6.00;;;;;21.63;26.42;97587.19;6187924;28;126249;-66
2021/05/05 00:25:39;;;;;;;;;5.00;5.00;;;;;21.66;26.21;97578.28;6189253;28;124773;-66
2021/05/05 00:28:56;;;;;;;;;5.00;5.00;;;;;21.65;26.19;97587.69;6209355;28;126099;-66
2021/05/05 00:31:58;;;;;;;;;4.00;4.00;;;;;21.61;26.56;97587.50;6190360;28;126514;-66
2021/05/05 00:35:01;;;;;;;;;6.40;6.00;;;;;21.56;26.87;97576.69;6195644;28;126267;-66
2021/05/05 00:38:03;;;;;;;;;6.00;5.00;;;;;21.55;26.93;97572.38;6213464;28;125138;-66
2021/05/05 00:41:06;;;;;;;;;7.00;6.00;;;;;21.44;26.85;97560.09;6211511;28;125148;-66
2021/05/05 00:44:08;;;;;;;;;4.00;4.00;;;;;21.46;27.03;97568.81;6212837;28;127162;-67
2021/05/05 00:47:11;;;;;;;;;6.00;5.00;;;;;21.40;26.98;97576.41;6210089;28;126477;-66
2021/05/05 00:50:18;;;;;;;;;4.50;4.50;;;;;21.38;27.30;97575.09;6213115;28;124851;-66
2021/05/05 00:53:20;;;;;;;;;5.20;5.00;;;;;21.31;27.06;97564.63;6202544;28;124720;-66
2021/05/05 00:56:22;;;;;;;;;5.00;5.00;;;;;21.41;27.88;97580.75;6187632;28;124249;-66
2021/05/05 00:59:26;;;;;;;;;5.60;5.00;;;;;21.37;27.36;97584.44;6191245;28;126313;-67
2021/05/05 01:02:28;;;;;;;;;5.00;5.00;;;;;21.39;27.32;97583.03;6211954;28;124718;-66
2021/05/05 01:05:32;;;;;;;;;4.00;4.00;;;;;21.36;27.24;97578.16;6203252;28;126336;-66
2021/05/05 01:08:34;;;;;;;;;5.00;5.00;;;;;21.38;27.41;97569.63;6207789;28;125690;-66
2021/05/05 01:11:37;;;;;;;;;6.00;5.00;;;;;21.27;27.76;97576.56;6193127;28;124538;-66
2021/05/05 01:14:40;;;;;;;;;5.00;4.00;;;;;21.18;27.79;97557.38;6191121;28;125238;-66
2021/05/05 01:17:42;;;;;;;;;5.00;4.60;;;;;21.26;28.05;97566.75;6212766;28;126435;-66
2021/05/05 01:20:46;;;;;;;;;4.40;3.60;;;;;21.30;27.75;97563.03;6204970;28;126364;-67
2021/05/05 01:23:49;;;;;;;;;5.20;5.20;;;;;21.20;28.00;97549.66;6189439;28;125107;-66
2021/05/05 01:26:52;;;;;;;;;5.00;5.00;;;;;21.11;28.70;97555.06;6197982;28;125712;-66
2021/05/05 01:29:54;;;;;;;;;6.60;6.00;;;;;21.11;28.79;97546.84;6198120;28;126493;-66
2021/05/05 01:32:57;;;;;;;;;5.00;5.00;;;;;21.03;28.95;97544.94;6193928;28;126475;-66
2021/05/05 01:36:02;;;;;;;;;4.00;4.00;;;;;20.90;29.20;97558.78;6200923;28;124932;-67
2021/05/05 01:39:10;;;;;;;;;4.00;4.00;;;;;20.88;29.36;97542.66;6188890;28;126438;-66
2021/05/05 01:42:13;;;;;;;;;6.00;5.00;;;;;20.84;29.00;97538.94;6209841;28;126164;-67
2021/05/05 01:45:16;;;;;;;;;5.00;5.00;;;;;20.81;29.52;97536.06;6208727;28;126504;-67
2021/05/05 01:48:19;;;;;;;;;5.00;5.00;;;;;20.74;29.50;97537.34;6197554;28;125074;-67
2021/05/05 01:51:22;;;;;;;;;5.00;5.00;;;;;20.68;29.53;97537.78;6202955;28;125842;-67
2021/05/05 01:54:25;;;;;;;;;6.25;5.00;;;;;20.67;29.77;97528.78;6212492;28;125117;-67
2021/05/05 01:57:38;;;;;;;;;4.25;4.25;;;;;20.67;29.66;97526.03;6204979;28;126443;-67
2021/05/05 02:00:46;;;;;;;;;6.00;4.40;;;;;20.67;29.52;97522.50;6198292;28;125557;-67
2021/05/05 02:03:49;;;;;;;;;6.40;6.00;;;;;20.62;29.82;97525.41;6200524;28;125746;-67
2021/05/05 02:07:06;;;;;;;;;4.00;4.00;;;;;20.62;30.01;97523.44;6196726;28;126297;-67
2021/05/05 02:10:18;;;;;;;;;5.67;5.00;;;;;20.62;29.73;97519.94;6187396;28;126064;-67
2021/05/05 02:13:21;;;;;;;;;6.00;6.00;;;;;20.58;29.63;97524.41;6206699;28;126192;-67
2021/05/05 02:16:26;;;;;;;;;5.00;4.60;;;;;20.61;29.98;97521.06;6209357;28;125925;-67
2021/05/05 02:19:29;;;;;;;;;5.20;5.00;;;;;20.58;30.13;97513.44;6191845;28;124865;-67
2021/05/05 02:22:32;;;;;;;;;6.00;6.00;;;;;20.53;29.97;97508.13;6211606;28;126139;-67
2021/05/05 02:25:35;;;;;;;;;5.00;4.40;;;;;20.54;30.09;97516.03;6196714;28;126259;-67
2021/05/05 02:28:43;;;;;;;;;4.00;4.00;;;;;20.53;29.91;97511.69;6204166;28;124563;-67
2021/05/05 02:31:56;;;;;;;;;3.75;3.00;;;;;20.56;29.75;97507.50;6186876;28;125943;-67
2021/05/05 02:34:59;;;;;;;;;4.00;4.00;;;;;20.53;30.18;97500.72;6185822;28;126766;-67
2021/05/05 02:38:02;;;;;;;;;4.40;4.00;;;;;20.53;30.12;97502.66;6199020;28;126248;-67
2021/05/05 02:41:05;;;;;;;;;4.00;4.00;;;;;20.53;29.77;97500.72;6209136;28;127656;-67
2021/05/05 02:44:08;;;;;;;;;5.20;5.20;;;;;20.55;29.72;97501.22;6208984;28;126605;-67
2021/05/05 02:47:10;;;;;;;;;3.25;3.25;;;;;20.55;29.98;97497.69;6204856;28;124929;-67
2021/05/05 02:50:13;;;;;;;;;4.00;4.00;;;;;20.55;29.96;97500.41;6200016;28;126133;-67
2021/05/05 02:53:16;;;;;;;;;4.00;4.00;;;;;20.54;29.66;97483.19;6193545;28;126043;-67
2021/05/05 02:56:19;;;;;;;;;5.00;4.00;;;;;20.50;29.62;97489.63;6203755;28;125193;-67
2021/05/05 02:59:24;;;;;;;;;5.00;5.00;;;;;20.45;29.57;97465.94;6190214;28;125882;-67
2021/05/05 03:02:27;;;;;;;;;4.00;4.00;;;;;20.58;29.33;97480.59;6185340;28;123803;-67
2021/05/05 03:05:29;;;;;;;;;4.67;4.67;;;;;20.60;29.25;97473.69;6201743;28;126165;-67
2021/05/05 03:08:32;;;;;;;;;5.60;5.00;;;;;20.66;29.26;97482.56;6210689;28;126543;-67
2021/05/05 03:11:35;;;;;;;;;5.00;5.00;;;;;20.55;29.31;97454.69;6187555;28;126626;-67
2021/05/05 03:14:37;;;;;;;;;3.80;3.80;;;;;20.56;29.12;97466.44;6185043;28;126716;-67
2021/05/05 03:17:40;;;;;;;;;5.00;4.75;;;;;20.54;29.24;97466.75;6186379;28;125129;-67
2021/05/05 03:20:43;;;;;;;;;5.00;4.60;;;;;20.65;29.06;97483.69;6193951;28;125927;-67
2021/05/05 03:23:46;;;;;;;;;3.80;3.80;;;;;20.74;29.18;97479.81;6210703;28;126678;-67
2021/05/05 03:26:49;;;;;;;;;5.00;5.00;;;;;20.74;28.99;97477.09;6174499;28;126031;-67
2021/05/05 03:29:51;;;;;;;;;5.00;4.00;;;;;20.68;29.24;97475.63;6188036;28;124960;-67
2021/05/05 03:32:54;;;;;;;;;5.00;4.00;;;;;20.69;28.83;97473.69;6200948;28;124446;-67
2021/05/05 03:35:56;;;;;;;;;4.00;3.33;;;;;20.62;28.97;97476.13;6200908;28;126294;-67
2021/05/05 03:39:00;;;;;;;;;5.75;5.00;;;;;20.53;29.14;97464.31;6191424;28;126090;-67
2021/05/05 03:42:05;;;;;;;;;4.20;3.20;;;;;20.40;29.08;97476.22;6209403;28;125887;-67
2021/05/05 03:45:09;;;;;;;;;5.00;4.00;;;;;20.36;29.13;97467.06;6207594;28;124504;-67
2021/05/05 03:48:12;;;;;;;;;3.80;3.00;;;;;20.39;29.54;97469.94;6208714;28;125247;-67
2021/05/05 03:51:15;;;;;;;;;4.00;3.75;;;;;20.33;29.17;97472.03;6200481;28;128596;-67
2021/05/05 03:54:18;;;;;;;;;4.00;4.00;;;;;20.24;29.33;97452.00;6186377;28;125159;-67
2021/05/05 03:57:21;;;;;;;;;4.80;4.80;;;;;20.16;29.38;97438.31;6202331;28;127222;-67
2021/05/05 04:00:23;;;;;;;;;4.00;4.00;;;;;20.25;29.58;97464.59;6198976;28;126636;-67
2021/05/05 04:03:26;;;;;;;;;7.00;7.00;;;;;20.27;29.38;97476.03;6198835;28;126855;-67
2021/05/05 04:06:28;;;;;;;;;5.50;5.00;;;;;20.25;29.39;97466.50;6204543;28;124966;-67
2021/05/05 04:09:30;;;;;;;;;6.00;5.00;;;;;20.38;29.10;97481.25;6205696;28;125431;-67
2021/05/05 04:12:33;;;;;;;;;4.00;4.00;;;;;20.49;29.32;97469.66;6212013;28;126774;-67
2021/05/05 04:15:53;;;;;;;;;5.00;5.00;;;;;20.57;29.06;97474.34;6198151;28;127807;-67
2021/05/05 04:19:13;;;;;;;;;4.60;4.00;;;;;20.69;29.16;97469.03;6196574;28;124791;-66
2021/05/05 04:22:34;;;;;;;;;5.00;5.00;;;;;20.55;29.11;97456.59;6208946;28;125952;-67
2021/05/05 04:25:54;;;;;;;;;3.20;3.20;;;;;20.64;29.23;97465.63;6209933;28;126094;-66
2021/05/05 04:28:58;;;;;;;;;4.60;4.60;;;;;20.77;28.99;97477.56;6202545;28;125278;-66
2021/05/05 04:32:00;;;;;;;;;4.75;4.75;;;;;20.81;29.23;97481.28;6209774;28;126158;-66
2021/05/05 04:35:03;;;;;;;;;4.00;4.00;;;;;20.93;28.83;97481.44;6200217;28;126186;-66
2021/05/05 04:38:06;;;;;;;;;5.20;5.00;;;;;21.03;28.89;97484.66;6202574;28;126395;-67
2021/05/05 04:41:11;;;;;;;;;6.00;6.00;;;;;21.01;28.71;97473.19;6209312;28;124651;-67
2021/05/05 04:44:14;;;;;;;;;5.75;5.00;;;;;21.17;28.74;97498.19;6209248;28;126148;-67
2021/05/05 04:47:17;;;;;;;;;4.00;4.00;;;;;21.26;28.74;97490.00;6210280;28;129926;-67
2021/05/05 04:50:20;;;;;;;;;6.00;6.00;;;;;21.32;28.81;97480.44;6188115;28;126556;-67
2021/05/05 04:53:23;;;;;;;;;5.00;5.00;;;;;21.41;28.63;97482.03;6207680;28;125298;-67
2021/05/05 04:56:25;;;;;;;;;5.00;4.00;;;;;21.50;28.80;97482.03;6194829;28;127478;-67
2021/05/05 04:59:36;;;;;;;;;5.25;5.25;;;;;21.50;28.43;97482.81;6197063;28;124794;-67
2021/05/05 05:02:38;;;;;;;;;6.80;6.00;;;;;21.52;28.88;97482.50;6205916;28;125087;-67
2021/05/05 05:05:40;;;;;;;;;7.00;6.00;;;;;21.55;28.92;97479.91;6191870;28;126251;-67
2021/05/05 05:08:43;;;;;;;;;6.00;6.00;;;;;21.55;28.62;97484.63;6194817;28;125107;-67
2021/05/05 05:11:45;;;;;;;;;5.00;5.00;;;;;21.60;28.65;97481.66;6202133;28;124952;-67
2021/05/05 05:14:48;;;;;;;;;6.20;6.00;;;;;21.58;28.55;97483.94;6184147;28;125086;-67
2021/05/05 05:17:50;;;;;;;;;5.75;5.00;;;;;21.67;28.58;97492.16;6195463;28;127007;-67
2021/05/05 05:20:52;;;;;;;;;5.20;5.00;;;;;21.78;28.58;97496.16;6198081;28;126445;-67
2021/05/05 05:23:55;;;;;;;;;5.00;5.00;;;;;21.84;28.49;97492.09;6196156;28;125287;-67
2021/05/05 05:26:57;;;;;;;;;5.00;5.00;;;;;21.81;28.33;97499.03;6187020;28;126520;-67
2021/05/05 05:30:00;;;;;;;;;5.00;5.00;;;;;21.87;28.47;97499.66;6208939;28;128479;-67
2021/05/05 05:33:03;;;;;;;;;7.67;7.67;;;;;21.88;28.37;97496.59;6202022;28;127258;-67
2021/05/05 05:36:05;;;;;;;;;4.50;4.50;;;;;21.89;27.93;97498.19;6187137;28;125856;-67
2021/05/05 05:39:08;;;;;;;;;6.00;5.00;;;;;21.97;28.40;97499.34;6195460;28;124522;-66
2021/05/05 05:42:10;;;;;;;;;6.00;5.00;;;;;21.99;28.06;97508.84;6211918;28;126787;-67
2021/05/05 05:45:15;;;;;;;;;4.00;4.00;;;;;21.95;28.24;97507.88;6194652;28;124450;-67
2021/05/05 05:48:18;;;;;;;;;6.00;5.00;;;;;22.04;27.84;97507.84;6186944;28;125843;-66
2021/05/05 05:51:20;;;;;;;;;4.00;4.00;;;;;21.95;28.23;97496.91;6205984;28;125512;-67
2021/05/05 05:54:22;;;;;;;;;5.40;5.00;;;;;22.10;28.25;97511.22;6204997;28;125389;-67
2021/05/05 05:57:25;;;;;;;;;5.60;5.40;;;;;22.19;27.81;97510.03;6211200;28;125281;-67
2021/05/05 06:00:28;;;;;;;;;6.00;5.00;;;;;22.33;27.85;97515.31;6210381;28;125366;-67
2021/05/05 06:03:30;;;;;;;;;4.00;4.00;;;;;22.41;27.78;97514.47;6198114;28;126235;-67
2021/05/05 06:06:32;;;;;;;;;5.60;5.00;;;;;22.18;27.86;97475.50;6194725;28;125145;-67
2021/05/05 06:09:35;;;;;;;;;4.00;4.00;;;;;22.39;28.47;97511.22;6210471;28;124312;-67
2021/05/05 06:12:37;;;;;;;;;6.75;5.00;;;;;22.46;27.93;97500.53;6193384;28;125696;-67
2021/05/05 06:15:41;;;;;;;;;7.00;6.00;;;;;22.45;28.52;97507.16;6210072;28;125250;-67
2021/05/05 06:18:43;;;;;;;;;5.00;5.00;;;;;22.50;28.35;97495.19;6201916;28;124986;-68
2021/05/05 06:21:45;;;;;;;;;4.00;4.00;;;;;22.39;28.12;97500.25;6186239;28;126200;-67
2021/05/05 06:24:47;;;;;;;;;4.60;4.40;;;;;22.40;28.10;97496.38;6195735;28;125314;-67
2021/05/05 06:27:49;;;;;;;;;4.00;4.00;;;;;22.50;27.87;97495.19;6178284;28;125331;-67
2021/05/05 06:30:54;;;;;;;;;6.00;6.00;;;;;22.61;27.71;97493.66;6205555;28;127070;-67
2021/05/05 06:33:57;;;;;;;;;5.25;5.25;;;;;22.42;27.62;97469.41;6195362;28;126944;-67
2021/05/05 06:37:00;;;;;;;;;5.40;5.00;;;;;22.46;27.37;97473.09;6198082;28;126977;-67
2021/05/05 06:40:03;;;;;;;;;5.00;5.00;;;;;22.68;27.25;97478.25;6189973;28;124544;-67
2021/05/05 06:43:06;;;;;;;;;4.20;4.20;;;;;22.87;26.87;97483.34;6186171;28;125981;-67
2021/05/05 06:46:09;;;;;;;;;4.00;4.00;;;;;23.12;27.05;97476.78;6186194;28;126015;-67
2021/05/05 06:49:12;;;;;;;;;5.00;5.00;;;;;23.23;26.93;97469.72;6194033;28;125100;-67
2021/05/05 06:52:15;;;;;;;;;4.20;4.00;;;;;23.39;26.70;97474.59;6201748;28;125006;-67
2021/05/05 06:55:18;;;;;;;;;5.60;5.00;;;;;23.51;26.20;97464.47;6198787;28;125663;-67
2021/05/05 06:58:20;;;;;;;;;4.75;4.75;;;;;23.59;25.67;97458.09;6200686;28;125049;-67
2021/05/05 07:01:23;;;;;;;;;5.00;5.00;;;;;23.69;25.70;97456.84;6191430;28;126486;-67
2021/05/05 07:04:25;;;;;;;;;5.00;5.00;;;;;23.85;24.95;97457.75;6193617;28;124684;-67
2021/05/05 07:07:29;;;;;;;;;4.00;4.00;;;;;23.85;25.01;97454.22;6210461;28;125308;-67
2021/05/05 07:10:31;;;;;;;;;4.80;4.80;;;;;23.78;25.40;97423.69;6200191;28;124853;-66
2021/05/05 07:13:34;;;;;;;;;4.00;4.00;;;;;23.87;25.19;97438.97;6184867;28;127554;-66
2021/05/05 07:16:37;;;;;;;;;4.00;4.00;;;;;23.98;25.19;97418.09;6196669;28;126132;-67
2021/05/05 07:19:39;;;;;;;;;6.20;4.80;;;;;24.27;24.35;97433.59;6188448;28;126212;-66
2021/05/05 07:22:41;;;;;;;;;6.00;5.40;;;;;24.50;24.55;97437.47;6184956;28;127390;-66
2021/05/05 07:25:44;;;;;;;;;5.00;3.00;;;;;24.55;23.38;97436.41;6202810;28;127790;-66
2021/05/05 07:28:46;;;;;;;;;4.00;4.00;;;;;24.73;23.69;97429.47;6203066;28;126544;-67
2021/05/05 07:31:49;;;;;;;;;5.00;4.20;;;;;24.77;23.87;97424.09;6194419;28;125928;-66
2021/05/05 07:34:52;;;;;;;;;4.00;4.00;;;;;24.90;23.49;97417.41;6193224;28;125237;-67
2021/05/05 07:47:50;;;;;;;;;4.40;4.00;;;;;25.12;22.22;97397.53;6197453;28;126607;-66
2021/05/05 07:50:53;;;;;;;;;3.00;3.00;;;;;25.03;21.97;97405.97;6198753;28;125715;-67
2021/05/05 07:53:54;;;;;;;;;4.00;4.00;;;;;25.11;22.16;97393.19;6211360;28;125042;-67
2021/05/05 07:56:56;;;;;;;;;4.40;4.40;;;;;25.26;22.02;97400.69;6202141;28;126659;-67
2021/05/05 07:59:58;;;;;;;;;3.60;3.20;;;;;25.49;21.80;97395.38;6208177;28;127287;-67
2021/05/05 08:03:01;;;;;;;;;3.60;3.00;;;;;25.55;21.27;97399.50;6194868;28;127533;-67
2021/05/05 08:06:03;;;;;;;;;4.00;4.00;;;;;25.51;21.23;97401.31;6200362;28;125877;-66
2021/05/05 08:09:06;;;;;;;;;3.00;3.00;;;;;25.92;21.60;97385.41;6197229;28;126502;-66
2021/05/05 08:12:09;;;;;;;;;3.00;3.00;;;;;26.28;22.27;97391.47;6184046;28;124011;-66
2021/05/05 08:15:13;;;;;;;;;5.80;5.00;;;;;26.49;21.26;97387.53;6198145;28;124201;-67
2021/05/05 08:18:16;;;;;;;;;4.00;4.00;;;;;26.70;21.54;97375.00;6209237;28;124156;-66
2021/05/05 08:21:19;;;;;;;;;4.00;4.00;;;;;26.53;20.95;97371.88;6211812;28;126423;-67
2021/05/05 08:24:21;;;;;;;;;4.00;4.00;;;;;26.36;20.96;97378.59;6193808;28;127365;-67
2021/05/05 08:27:24;;;;;;;;;6.00;5.00;;;;;26.28;21.85;97355.53;6204328;28;124662;-67
2021/05/05 08:30:26;;;;;;;;;4.00;4.00;;;;;26.44;22.23;97374.03;6203052;28;126988;-67
2021/05/05 08:33:29;;;;;;;;;5.00;4.00;;;;;26.10;22.18;97370.88;6209754;28;127453;-67
2021/05/05 08:36:31;;;;;;;;;4.40;4.40;;;;;26.02;22.21;97369.09;6200911;28;127204;-67
2021/05/05 08:39:48;;;;;;;;;5.00;5.00;;;;;25.85;21.90;97372.25;6200165;28;125950;-67
2021/05/05 08:42:50;;;;;;;;;5.00;5.00;;;;;25.53;22.75;97367.88;6202768;28;126141;-67
2021/05/05 08:45:58;;;;;;;;;4.00;4.00;;;;;25.71;22.73;97358.09;6206304;28;126515;-67
2021/05/05 08:49:02;;;;;;;;;6.40;6.00;;;;;25.87;22.04;97372.69;6206283;28;126554;-67
2021/05/05 08:52:04;;;;;;;;;5.00;4.75;;;;;25.85;22.33;97366.75;6200787;28;125035;-67
2021/05/05 08:55:09;;;;;;;;;6.00;5.00;;;;;26.10;21.89;97348.78;6192992;28;127359;-68
2021/05/05 08:58:12;;;;;;;;;5.00;5.00;;;;;26.31;21.68;97345.72;6178985;28;126524;-68
2021/05/05 09:01:14;;;;;;;;;3.00;3.00;;;;;26.45;21.95;97340.50;6194699;28;126803;-67
2021/05/05 09:04:17;;;;;;;;;5.25;5.00;;;;;26.53;21.24;97333.97;6197174;28;126473;-67
2021/05/05 09:07:29;;;;;;;;;5.00;5.00;;;;;26.54;21.80;97330.03;6213046;28;125100;-68
2021/05/05 09:10:31;;;;;;;;;5.00;4.00;;;;;26.68;21.95;97324.00;6198086;28;124735;-68
2021/05/05 09:13:46;;;;;;;;;4.00;4.00;;;;;26.38;21.96;97334.03;6204839;28;128097;-68
2021/05/05 09:16:48;;;;;;;;;5.00;5.00;;;;;26.52;21.47;97337.09;6201424;28;124771;-68
2021/05/05 09:20:11;;;;;;;;;4.00;4.00;;;;;26.78;22.00;97326.16;6192150;28;126918;-68
2021/05/05 09:23:22;;;;;;;;;5.00;5.00;;;;;27.00;20.81;97319.91;6209096;28;126610;-67
2021/05/05 09:26:35;;;;;;;;;4.00;4.00;;;;;27.22;20.77;97314.78;6192129;28;126465;-67
2021/05/05 09:29:40;;;;;;;;;5.00;5.00;;;;;26.49;21.63;97301.88;6204222;28;125118;-67
2021/05/05 09:32:48;;;;;;;;;6.00;6.00;;;;;26.98;21.05;97302.88;6205303;28;125756;-67
2021/05/05 09:35:54;;;;;;;;;4.00;4.00;;;;;27.14;20.97;97306.34;6187915;28;125791;-67
2021/05/05 09:38:57;;;;;;;;;5.00;5.00;;;;;27.37;20.66;97295.25;6194637;28;126014;-67
2021/05/05 09:41:59;;;;;;;;;5.00;5.00;;;;;27.40;21.09;97288.19;6189349;28;123413;-67
2021/05/05 09:45:05;;;;;;;;;5.00;5.00;;;;;27.27;20.70;97273.75;6211908;28;124950;-67
2021/05/05 09:48:08;;;;;;;;;4.60;4.60;;;;;27.50;20.67;97282.06;6192828;28;124645;-65
2021/05/05 09:51:11;;;;;;;;;5.00;4.00;;;;;27.77;20.84;97271.81;6207101;28;124020;-66
2021/05/05 09:54:24;;;;;;;;;5.00;5.00;;;;;28.14;20.28;97281.09;6199993;28;124819;-66
2021/05/05 09:57:29;;;;;;;;;5.00;4.00;;;;;28.66;20.48;97262.69;6206468;28;124884;-66
2021/05/05 10:00:31;;;;;;;;;4.00;4.00;;;;;28.60;19.83;97258.66;6179641;28;123649;-66
2021/05/05 10:03:37;;;;;;;;;5.00;4.40;;;;;28.59;19.61;97257.88;6209567;28;125515;-66
2021/05/05 10:06:40;;;;;;;;;4.00;4.00;;;;;28.95;19.16;97255.50;6207664;28;124976;-67
2021/05/05 10:09:42;;;;;;;;;5.20;4.20;;;;;28.72;20.13;97250.13;6203075;28;126654;-67
2021/05/05 10:12:45;;;;;;;;;4.80;4.80;;;;;28.88;19.87;97241.59;6197457;28;126477;-67
2021/05/05 10:15:48;;;;;;;;;5.00;5.00;;;;;28.87;19.43;97206.69;6190526;28;126577;-66
2021/05/05 10:18:51;;;;;;;;;5.60;5.60;;;;;29.12;19.83;97233.50;6169938;28;126993;-66
2021/05/05 10:21:56;;;;;;;;;4.80;4.80;;;;;29.31;19.62;97231.69;6184290;28;124324;-66
2021/05/05 10:25:01;;;;;;;;;3.00;3.00;;;;;29.52;18.58;97229.84;6184046;28;124967;-67
2021/05/05 10:28:04;;;;;;;;;6.00;5.00;;;;;29.49;19.05;97233.41;6190964;28;126121;-66
2021/05/05 10:31:09;;;;;;;;;5.00;5.00;;;;;29.21;18.78;97236.75;6187101;28;127590;-66
2021/05/05 10:34:16;;;;;;;;;5.50;4.00;;;;;29.19;18.53;97211.34;6210107;28;124598;-66
2021/05/05 10:37:19;;;;;;;;;4.00;4.00;;;;;29.29;19.36;97234.81;6197454;28;126123;-67
2021/05/05 10:40:24;;;;;;;;;4.00;4.00;;;;;29.06;19.14;97225.91;6192156;28;128052;-67
2021/05/05 10:43:45;;;;;;;;;5.00;4.75;;;;;29.06;19.51;97218.38;6205100;28;123920;-67
2021/05/05 10:46:47;;;;;;;;;5.00;5.00;;;;;29.26;19.39;97216.97;6185555;28;126195;-67
2021/05/05 10:50:06;;;;;;;;;5.00;5.00;;;;;29.34;18.88;97203.16;6185768;28;126384;-67
2021/05/05 10:53:10;;;;;;;;;5.00;5.00;;;;;29.50;18.79;97190.59;6197297;28;126490;-67
2021/05/05 10:56:21;;;;;;;;;5.40;5.00;;;;;29.61;19.33;97193.44;6190917;28;124310;-67
2021/05/05 10:59:26;;;;;;;;;5.00;4.20;;;;;29.71;18.97;97179.59;6198607;28;126019;-67
2021/05/05 11:02:57;;;;;;;;;4.00;4.00;;;;;29.99;17.83;97195.66;6203082;28;125878;-67
2021/05/05 11:05:59;;;;;;;;;5.00;5.00;;;;;30.11;18.18;97197.28;6196604;28;126586;-67
2021/05/05 11:09:42;;;;;;;;;5.00;5.00;;;;;30.02;18.00;97205.19;6207548;28;127538;-67
2021/05/05 11:12:45;;;;;;;;;4.50;4.50;;;;;30.05;18.01;97184.97;6211124;28;123985;-68
2021/05/05 11:15:54;;;;;;;;;4.00;4.00;;;;;29.99;19.05;97189.31;6209411;28;127144;-67
2021/05/05 11:18:56;;;;;;;;;4.80;4.20;;;;;29.99;18.67;97187.31;6200813;28;126335;-67
2021/05/05 11:21:59;;;;;;;;;3.80;3.00;;;;;30.08;19.31;97186.97;6194318;28;125199;-68
2021/05/05 11:25:28;;;;;;;;;4.00;3.00;;;;;30.05;18.95;97188.56;6214770;28;126595;-67
2021/05/05 11:28:54;;;;;;;;;3.40;3.40;;;;;29.99;18.21;97181.78;6213306;28;125294;-67
2021/05/05 11:32:00;;;;;;;;;3.60;3.60;;;;;29.80;18.48;97198.72;6202508;28;125962;-67
2021/05/05 11:35:03;;;;;;;;;6.00;4.00;;;;;29.60;17.77;97181.53;6201571;28;124884;-66
2021/05/05 11:38:31;;;;;;;;;4.00;4.00;;;;;29.45;18.21;97167.94;6189438;28;124470;-67
2021/05/05 11:41:34;;;;;;;;;3.00;3.00;;;;;29.28;18.33;97172.16;6189787;28;126456;-67
2021/05/05 11:44:38;;;;;;;;;4.00;3.00;;;;;29.03;18.89;97173.97;6195598;28;126188;-67
2021/05/05 11:47:43;;;;;;;;;4.80;4.00;;;;;28.71;18.18;97176.41;6190672;28;126016;-66
2021/05/05 11:50:46;;;;;;;;;3.60;3.60;;;;;28.62;18.74;97181.47;6199016;28;125295;-67
2021/05/05 11:53:49;;;;;;;;;4.00;4.00;;;;;28.39;18.96;97189.94;6200795;28;125117;-67
2021/05/05 11:57:03;;;;;;;;;3.60;3.00;;;;;28.25;19.03;97181.44;6204559;28;126402;-67
2021/05/05 12:00:11;;;;;;;;;4.00;4.00;;;;;27.95;19.51;97198.09;6210158;28;125931;-67
2021/05/05 12:03:15;;;;;;;;;4.25;4.25;;;;;27.88;21.71;97220.16;6213484;28;125095;-67
2021/05/05 12:06:17;;;;;;;;;5.00;4.20;;;;;27.62;23.51;97203.53;6189846;28;126442;-67
2021/05/05 12:09:25;;;;;;;;;5.00;5.00;;;;;27.67;23.79;97208.75;6194155;28;127390;-66
2021/05/05 12:12:28;;;;;;;;;4.00;4.00;;;;;27.60;24.09;97194.84;6188481;28;125053;-66
2021/05/05 12:15:31;;;;;;;;;4.00;4.00;;;;;27.61;25.00;97197.22;6191053;28;127592;-66
2021/05/05 12:18:36;;;;;;;;;4.00;4.00;;;;;27.50;24.83;97194.31;6211833;28;127626;-66
2021/05/05 12:21:38;;;;;;;;;5.00;5.00;;;;;27.37;24.72;97208.69;6208760;28;127663;-68
2021/05/05 12:24:40;;;;;;;;;3.60;3.60;;;;;26.94;24.19;97187.81;6202704;28;126233;-68
2021/05/05 12:28:09;;;;;;;;;5.00;5.00;;;;;26.99;25.36;97198.59;6203514;28;127987;-68
2021/05/05 12:31:13;;;;;;;;;5.40;5.40;;;;;27.00;26.03;97195.47;6199719;28;125915;-68
2021/05/05 12:34:16;;;;;;;;;4.00;4.00;;;;;27.00;25.45;97205.72;6197180;28;127258;-67
2021/05/05 12:37:18;;;;;;;;;4.00;3.00;;;;;26.85;24.54;97225.97;6209689;28;127311;-67
2021/05/05 12:40:23;;;;;;;;;6.00;6.00;;;;;26.71;26.24;97254.97;6211849;28;128859;-67
2021/05/05 12:43:28;;;;;;;;;8.00;7.20;;;;;26.54;27.11;97255.41;6195453;28;125947;-67
2021/05/05 12:46:33;;;;;;;;;8.00;7.00;;;;;26.28;29.13;97258.84;6200789;28;126311;-67
2021/05/05 12:49:37;;;;;;;;;8.00;7.00;;;;;26.01;29.24;97270.06;6187578;28;127228;-67
2021/05/05 12:52:41;;;;;;;;;9.20;8.80;;;;;25.66;29.93;97298.44;6205225;28;126152;-66
2021/05/05 12:55:45;;;;;;;;;9.40;9.40;;;;;25.26;31.30;97339.22;6194863;28;125044;-67
2021/05/05 12:58:49;;;;;;;;;7.00;7.00;;;;;24.89;32.44;97352.38;6207214;28;125838;-67
2021/05/05 13:02:02;;;;;;;;;11.00;11.00;;;;;24.42;33.61;97390.78;6213137;28;126123;-66
2021/05/05 13:05:07;;;;;;;;;10.40;9.40;;;;;23.83;34.26;97390.47;6213439;28;125951;-67
2021/05/05 13:08:10;;;;;;;;;8.00;8.00;;;;;23.47;35.95;97426.97;6211004;28;124855;-67
2021/05/05 13:11:25;;;;;;;;;9.00;8.40;;;;;22.89;36.75;97437.06;6203824;28;126182;-67
2021/05/05 13:14:49;;;;;;;;;7.00;6.00;;;;;22.52;36.66;97444.28;6187230;28;125872;-67
2021/05/05 13:18:23;;;;;;;;;5.75;5.25;;;;;21.94;37.61;97467.06;6186316;28;126557;-68
2021/05/05 13:31:46;;;;;;;;;7.00;6.00;;;;;20.40;40.85;97537.25;6212267;28;125306;-69
2021/05/05 13:34:49;;;;;;;;;7.20;6.20;;;;;19.94;41.52;97558.78;6212454;28;124993;-68
2021/05/05 13:38:03;;;;;;;;;7.00;7.00;;;;;19.77;42.07;97554.84;6206029;28;127031;-68
2021/05/05 13:41:08;;;;;;;;;7.00;7.00;;;;;19.62;43.48;97540.75;6187611;28;126688;-66
2021/05/05 13:44:13;;;;;;;;;6.00;5.80;;;;;19.59;42.34;97544.13;6187552;28;126156;-66
2021/05/05 13:47:26;;;;;;;;;5.00;5.00;;;;;19.42;43.05;97542.03;6202928;28;125714;-66
2021/05/05 13:50:28;;;;;;;;;4.75;4.75;;;;;19.14;43.41;97514.03;6212222;28;127030;-67
2021/05/05 13:53:31;;;;;;;;;6.00;5.00;;;;;19.23;43.76;97538.69;6211855;28;125933;-66
2021/05/05 13:56:33;;;;;;;;;6.80;5.80;;;;;19.09;44.05;97540.66;6203002;28;124259;-67
2021/05/05 13:59:38;;;;;;;;;5.60;5.60;;;;;18.98;44.33;97542.81;6205132;28;126877;-67
2021/05/05 14:02:42;;;;;;;;;7.00;7.00;;;;;18.98;44.37;97542.81;6211182;28;125100;-67
2021/05/05 14:05:47;;;;;;;;;7.00;7.00;;;;;19.08;44.30;97547.25;6208266;28;126532;-67
2021/05/05 14:08:50;;;;;;;;;6.00;5.00;;;;;19.00;44.81;97540.59;6187044;28;125145;-67
2021/05/05 14:11:52;;;;;;;;;6.00;4.00;;;;;19.06;45.03;97538.56;6186993;28;125842;-66
2021/05/05 14:14:54;;;;;;;;;4.00;4.00;;;;;19.17;44.55;97539.91;6193961;28;127556;-67
2021/05/05 14:17:58;;;;;;;;;4.60;4.00;;;;;19.06;44.96;97544.03;6194342;28;127615;-66
2021/05/05 14:21:06;;;;;;;;;4.60;3.60;;;;;18.79;45.30;97521.13;6186762;28;126172;-67
2021/05/05 14:24:09;;;;;;;;;7.00;6.00;;;;;18.94;45.22;97528.16;6188156;28;125898;-67
2021/05/05 14:27:11;;;;;;;;;5.00;5.00;;;;;18.87;45.45;97523.13;6211392;28;126759;-67
2021/05/05 14:30:15;;;;;;;;;5.00;5.00;;;;;18.77;45.76;97537.00;6211159;28;126847;-67
2021/05/05 14:33:18;;;;;;;;;6.00;6.00;;;;;18.34;46.42;97498.34;6210190;28;126541;-67
2021/05/05 14:36:20;;;;;;;;;7.75;6.75;;;;;18.50;47.17;97551.50;6208683;28;126216;-67
2021/05/05 14:39:23;;;;;;;;;7.00;6.00;;;;;18.36;47.63;97549.91;6193400;28;124982;-68